sensor_id;sensor_type;location;lat;lon;timestamp;pressure;altitude;pressure_sealevel;temperature;humidity
72395;BME280;60384;48.152;11.614;2023-03-26T00:00:10;95234.19;;;9.02;52.72
72395;BME280;60384;48.152;11.614;2023-03-26T00:03:15;95234.66;;;9.04;53.13
72395;BME280;60384;48.152;11.614;2023-03-26T00:06:19;95226.78;;;9.07;53.14
72395;BME280;60384;48.152;11.614;2023-03-26T00:09:21;95230.25;;;9.08;52.38
72395;BME280;60384;48.152;11.614;2023-03-26T00:12:23;95232.59;;;9.09;53.10
72395;BME280;60384;48.152;11.614;2023-03-26T00:15:25;95225.69;;;9.08;53.24
72395;BME280;60384;48.152;11.614;2023-03-26T00:18:29;95223.03;;;9.08;52.72
72395;BME280;60384;48.152;11.614;2023-03-26T00:21:31;95227.09;;;9.06;52.75
72395;BME280;60384;48.152;11.614;2023-03-26T00:24:33;95230.91;;;9.05;52.53
72395;BME280;60384;48.152;11.614;2023-03-26T00:27:36;95224.31;;;9.02;52.57
72395;BME280;60384;48.152;11.614;2023-03-26T00:30:38;95217.41;;;9.01;52.99
72395;BME280;60384;48.152;11.614;2023-03-26T00:33:43;95217.72;;;9.00;53.09
72395;BME280;60384;48.152;11.614;2023-03-26T00:36:45;95214.28;;;8.99;53.10
72395;BME280;60384;48.152;11.614;2023-03-26T00:39:48;95214.91;;;8.96;52.81
72395;BME280;60384;48.152;11.614;2023-03-26T00:42:50;95214.13;;;8.96;53.05
72395;BME280;60384;48.152;11.614;2023-03-26T00:45:53;95206.44;;;8.94;53.17
72395;BME280;60384;48.152;11.614;2023-03-26T00:48:58;95212.13;;;8.93;53.24
72395;BME280;60384;48.152;11.614;2023-03-26T00:51:59;95204.44;;;8.91;53.15
72395;BME280;60384;48.152;11.614;2023-03-26T00:55:02;95206.31;;;8.91;53.33
72395;BME280;60384;48.152;11.614;2023-03-26T00:58:04;95205.53;;;8.90;53.15
72395;BME280;60384;48.152;11.614;2023-03-26T01:01:11;95195.97;;;8.89;52.94
72395;BME280;60384;48.152;11.614;2023-03-26T01:04:25;95211.16;;;8.89;52.71
72395;BME280;60384;48.152;11.614;2023-03-26T01:07:30;95196.31;;;8.88;52.87
72395;BME280;60384;48.152;11.614;2023-03-26T01:10:31;95205.69;;;8.85;52.99
72395;BME280;60384;48.152;11.614;2023-03-26T01:13:40;95203.81;;;8.86;53.04
72395;BME280;60384;48.152;11.614;2023-03-26T01:16:44;95206.47;;;8.86;53.47
72395;BME280;60384;48.152;11.614;2023-03-26T01:19:55;95205.69;;;8.85;52.54
72395;BME280;60384;48.152;11.614;2023-03-26T01:23:02;95209.00;;;8.82;52.68
72395;BME280;60384;48.152;11.614;2023-03-26T01:26:12;95202.09;;;8.81;52.93
72395;BME280;60384;48.152;11.614;2023-03-26T01:29:23;95206.16;;;8.79;53.13
72395;BME280;60384;48.152;11.614;2023-03-26T01:32:35;95205.38;;;8.78;52.81
72395;BME280;60384;48.152;11.614;2023-03-26T01:35:45;95194.59;;;8.75;53.26
72395;BME280;60384;48.152;11.614;2023-03-26T01:38:55;95185.81;;;8.74;53.43
72395;BME280;60384;48.152;11.614;2023-03-26T01:42:06;95189.56;;;8.73;53.49
72395;BME280;60384;48.152;11.614;2023-03-26T01:45:12;95188.00;;;8.72;52.73
72395;BME280;60384;48.152;11.614;2023-03-26T01:48:16;95186.47;;;8.71;53.04
72395;BME280;60384;48.152;11.614;2023-03-26T01:51:27;95188.66;;;8.69;53.07
72395;BME280;60384;48.152;11.614;2023-03-26T01:54:30;95174.06;;;8.66;53.23
72395;BME280;60384;48.152;11.614;2023-03-26T01:57:42;95166.72;;;8.63;52.95
72395;BME280;60384;48.152;11.614;2023-03-26T02:00:52;95175.81;;;8.62;53.64
72395;BME280;60384;48.152;11.614;2023-03-26T02:04:00;95173.47;;;8.61;53.31
72395;BME280;60384;48.152;11.614;2023-03-26T02:07:10;95165.03;;;8.59;53.17
72395;BME280;60384;48.152;11.614;2023-03-26T02:10:15;95158.91;;;8.58;52.99
72395;BME280;60384;48.152;11.614;2023-03-26T02:13:21;95160.00;;;8.57;53.22
72395;BME280;60384;48.152;11.614;2023-03-26T02:16:23;95148.88;;;8.55;52.87
72395;BME280;60384;48.152;11.614;2023-03-26T02:19:24;95149.97;;;8.54;53.46
72395;BME280;60384;48.152;11.614;2023-03-26T02:22:26;95148.09;;;8.55;53.35
72395;BME280;60384;48.152;11.614;2023-03-26T02:25:30;95149.22;;;8.54;52.96
72395;BME280;60384;48.152;11.614;2023-03-26T02:28:36;95147.31;;;8.54;53.57
72395;BME280;60384;48.152;11.614;2023-03-26T02:31:38;95143.13;;;8.53;53.48
72395;BME280;60384;48.152;11.614;2023-03-26T02:34:41;95141.84;;;8.51;53.08
72395;BME280;60384;48.152;11.614;2023-03-26T02:37:43;95142.94;;;8.50;53.67
72395;BME280;60384;48.152;11.614;2023-03-26T02:40:52;95135.28;;;8.48;52.88
72395;BME280;60384;48.152;11.614;2023-03-26T02:43:58;95134.97;;;8.50;53.57
72395;BME280;60384;48.152;11.614;2023-03-26T02:47:20;95129.97;;;8.48;53.20
72395;BME280;60384;48.152;11.614;2023-03-26T02:50:42;95130.72;;;8.49;53.70
72395;BME280;60384;48.152;11.614;2023-03-26T02:54:18;95118.19;;;8.49;53.77
72395;BME280;60384;48.152;11.614;2023-03-26T02:57:26;95125.41;;;8.49;53.02
72395;BME280;60384;48.152;11.614;2023-03-26T03:00:48;95112.09;;;8.49;53.59
72395;BME280;60384;48.152;11.614;2023-03-26T03:04:09;95108.69;;;8.48;53.78
72395;BME280;60384;48.152;11.614;2023-03-26T03:07:11;95109.44;;;8.49;53.59
72395;BME280;60384;48.152;11.614;2023-03-26T03:10:16;95099.91;;;8.48;53.44
72395;BME280;60384;48.152;11.614;2023-03-26T03:13:38;95093.03;;;8.47;52.98
72395;BME280;60384;48.152;11.614;2023-03-26T03:16:42;95086.59;;;8.48;52.73
72395;BME280;60384;48.152;11.614;2023-03-26T03:19:45;95083.16;;;8.47;53.56
72395;BME280;60384;48.152;11.614;2023-03-26T03:22:47;95074.84;;;8.49;53.34
72395;BME280;60384;48.152;11.614;2023-03-26T03:25:50;95074.06;;;8.48;53.65
72395;BME280;60384;48.152;11.614;2023-03-26T03:28:52;95072.16;;;8.49;52.96
72395;BME280;60384;48.152;11.614;2023-03-26T03:31:56;95066.84;;;8.49;52.88
72395;BME280;60384;48.152;11.614;2023-03-26T03:35:20;95059.34;;;8.51;53.50
72395;BME280;60384;48.152;11.614;2023-03-26T03:38:27;95062.31;;;8.49;53.46
72395;BME280;60384;48.152;11.614;2023-03-26T03:41:29;95064.97;;;8.49;53.51
72395;BME280;60384;48.152;11.614;2023-03-26T03:44:33;95066.84;;;8.49;52.83
72395;BME280;60384;48.152;11.614;2023-03-26T03:47:40;95060.78;;;8.48;52.97
72395;BME280;60384;48.152;11.614;2023-03-26T03:50:42;95061.53;;;8.49;53.99
72395;BME280;60384;48.152;11.614;2023-03-26T03:53:58;95059.66;;;8.49;52.91
72395;BME280;60384;48.152;11.614;2023-03-26T03:57:18;95060.44;;;8.50;52.77
72395;BME280;60384;48.152;11.614;2023-03-26T04:00:36;95057.78;;;8.50;53.72
72395;BME280;60384;48.152;11.614;2023-03-26T04:04:01;95048.22;;;8.49;53.04
72395;BME280;60384;48.152;11.614;2023-03-26T04:07:18;95047.13;;;8.50;53.53
72395;BME280;60384;48.152;11.614;2023-03-26T04:10:35;95050.56;;;8.50;53.32
72395;BME280;60384;48.152;11.614;2023-03-26T04:13:37;95039.63;;;8.52;52.75
72395;BME280;60384;48.152;11.614;2023-03-26T04:16:52;95031.31;;;8.53;52.93
72395;BME280;60384;48.152;11.614;2023-03-26T04:19:56;95029.44;;;8.54;53.52
72395;BME280;60384;48.152;11.614;2023-03-26T04:23:07;95026.78;;;8.54;53.45
72395;BME280;60384;48.152;11.614;2023-03-26T04:26:15;95018.44;;;8.55;53.26
72395;BME280;60384;48.152;11.614;2023-03-26T04:29:48;95017.22;;;8.53;53.67
72395;BME280;60384;48.152;11.614;2023-03-26T04:32:54;95026.00;;;8.53;53.26
72395;BME280;60384;48.152;11.614;2023-03-26T04:36:00;95012.69;;;8.53;52.90
72395;BME280;60384;48.152;11.614;2023-03-26T04:39:05;95008.16;;;8.54;53.10
72395;BME280;60384;48.152;11.614;2023-03-26T04:42:33;95008.75;;;8.51;53.24
72395;BME280;60384;48.152;11.614;2023-03-26T04:45:55;95003.44;;;8.51;53.13
72395;BME280;60384;48.152;11.614;2023-03-26T04:49:00;95006.88;;;8.51;53.65
72395;BME280;60384;48.152;11.614;2023-03-26T04:52:04;94998.59;;;8.53;53.64
72395;BME280;60384;48.152;11.614;2023-03-26T04:55:27;94991.38;;;8.53;53.35
72395;BME280;60384;48.152;11.614;2023-03-26T04:58:39;94979.63;;;8.54;53.09
72395;BME280;60384;48.152;11.614;2023-03-26T05:01:41;94981.97;;;8.56;53.69
72395;BME280;60384;48.152;11.614;2023-03-26T05:04:47;94985.41;;;8.56;53.95
72395;BME280;60384;48.152;11.614;2023-03-26T05:07:51;94979.00;;;8.57;53.83
72395;BME280;60384;48.152;11.614;2023-03-26T05:10:55;94972.56;;;8.58;53.52
72395;BME280;60384;48.152;11.614;2023-03-26T05:14:04;94963.50;;;8.59;53.17
72395;BME280;60384;48.152;11.614;2023-03-26T05:17:07;94962.06;;;8.62;53.18
72395;BME280;60384;48.152;11.614;2023-03-26T05:20:17;94957.50;;;8.62;53.81
72395;BME280;60384;48.152;11.614;2023-03-26T05:23:22;94955.63;;;8.63;52.96
72395;BME280;60384;48.152;11.614;2023-03-26T05:26:44;94950.00;;;8.64;53.36
72395;BME280;60384;48.152;11.614;2023-03-26T05:29:47;94957.31;;;8.67;52.85
72395;BME280;60384;48.152;11.614;2023-03-26T05:32:49;94948.25;;;8.68;52.95
72395;BME280;60384;48.152;11.614;2023-03-26T05:36:00;94952.16;;;8.71;53.39
72395;BME280;60384;48.152;11.614;2023-03-26T05:39:06;94959.50;;;8.74;53.66
72395;BME280;60384;48.152;11.614;2023-03-26T05:42:28;94945.53;;;8.77;53.76
72395;BME280;60384;48.152;11.614;2023-03-26T05:45:42;94951.00;;;8.81;53.16
72395;BME280;60384;48.152;11.614;2023-03-26T05:48:52;94946.13;;;8.83;53.47
72395;BME280;60384;48.152;11.614;2023-03-26T05:51:55;94934.03;;;8.85;53.18
72395;BME280;60384;48.152;11.614;2023-03-26T05:55:11;94936.09;;;8.88;52.86
72395;BME280;60384;48.152;11.614;2023-03-26T05:58:32;94923.66;;;8.92;53.44
72395;BME280;60384;48.152;11.614;2023-03-26T06:01:53;94911.56;;;8.95;53.31
72395;BME280;60384;48.152;11.614;2023-03-26T06:05:21;94911.38;;;9.00;53.45
72395;BME280;60384;48.152;11.614;2023-03-26T06:08:32;94909.63;;;9.04;53.07
72395;BME280;60384;48.152;11.614;2023-03-26T06:11:35;94913.22;;;9.08;53.11
72395;BME280;60384;48.152;11.614;2023-03-26T06:14:38;94900.47;;;9.13;52.56
72395;BME280;60384;48.152;11.614;2023-03-26T06:17:56;94894.94;;;9.19;52.44
72395;BME280;60384;48.152;11.614;2023-03-26T06:21:17;94888.31;;;9.25;52.42
72395;BME280;60384;48.152;11.614;2023-03-26T06:24:24;94893.44;;;9.30;53.05
72395;BME280;60384;48.152;11.614;2023-03-26T06:27:45;94896.69;;;9.35;52.81
72395;BME280;60384;48.152;11.614;2023-03-26T06:31:13;94893.81;;;9.40;52.66
72395;BME280;60384;48.152;11.614;2023-03-26T06:34:24;94893.16;;;9.43;52.44
72395;BME280;60384;48.152;11.614;2023-03-26T06:37:27;94888.28;;;9.45;52.82
72395;BME280;60384;48.152;11.614;2023-03-26T06:40:34;94887.16;;;9.46;52.59
72395;BME280;60384;48.152;11.614;2023-03-26T06:44:13;94872.09;;;9.50;52.57
72395;BME280;60384;48.152;11.614;2023-03-26T06:47:33;94877.22;;;9.56;52.62
72395;BME280;60384;48.152;11.614;2023-03-26T06:50:41;94875.44;;;9.60;52.66
72395;BME280;60384;48.152;11.614;2023-03-26T06:53:55;94873.25;;;9.62;52.84
72395;BME280;60384;48.152;11.614;2023-03-26T06:57:32;94873.03;;;9.67;52.60
72395;BME280;60384;48.152;11.614;2023-03-26T07:01:10;94874.69;;;9.71;52.53
72395;BME280;60384;48.152;11.614;2023-03-26T07:04:31;94867.16;;;9.73;52.73
72395;BME280;60384;48.152;11.614;2023-03-26T07:07:51;94864.91;;;9.75;52.58
72395;BME280;60384;48.152;11.614;2023-03-26T07:11:12;94850.94;;;9.78;52.80
72395;BME280;60384;48.152;11.614;2023-03-26T07:14:32;94843.72;;;9.79;52.70
72395;BME280;60384;48.152;11.614;2023-03-26T07:17:45;94845.25;;;9.80;52.54
72395;BME280;60384;48.152;11.614;2023-03-26T07:20:56;94845.81;;;9.85;52.41
72395;BME280;60384;48.152;11.614;2023-03-26T07:24:02;94843.16;;;9.85;52.66
72395;BME280;60384;48.152;11.614;2023-03-26T07:27:35;94829.81;;;9.85;52.75
72395;BME280;60384;48.152;11.614;2023-03-26T07:30:45;94825.25;;;9.86;52.49
72395;BME280;60384;48.152;11.614;2023-03-26T07:34:29;94810.38;;;9.85;52.52
72395;BME280;60384;48.152;11.614;2023-03-26T07:37:56;94808.81;;;9.84;52.51
72395;BME280;60384;48.152;11.614;2023-03-26T07:41:43;94787.72;;;9.79;52.66
72395;BME280;60384;48.152;11.614;2023-03-26T07:45:13;94780.03;;;9.77;52.74
72395;BME280;60384;48.152;11.614;2023-03-26T07:48:53;94766.91;;;9.72;52.98
72395;BME280;60384;48.152;11.614;2023-03-26T07:52:21;94762.59;;;9.68;52.75
72395;BME280;60384;48.152;11.614;2023-03-26T07:55:58;94770.03;;;9.62;52.87
72395;BME280;60384;48.152;11.614;2023-03-26T07:59:20;94757.13;;;9.64;53.03
72395;BME280;60384;48.152;11.614;2023-03-26T08:06:22;94733.13;;;9.76;52.69
72395;BME280;60384;48.152;11.614;2023-03-26T08:09:38;94728.44;;;9.85;52.71
72395;BME280;60384;48.152;11.614;2023-03-26T08:13:09;94725.22;;;9.92;52.47
72395;BME280;60384;48.152;11.614;2023-03-26T08:16:22;94713.91;;;9.95;52.60
72395;BME280;60384;48.152;11.614;2023-03-26T08:19:37;94701.78;;;9.98;52.67
72395;BME280;60384;48.152;11.614;2023-03-26T08:22:44;94698.78;;;9.99;52.46
72395;BME280;60384;48.152;11.614;2023-03-26T08:25:58;94714.00;;;9.99;52.56
72395;BME280;60384;48.152;11.614;2023-03-26T08:29:13;94703.88;;;9.92;53.12
72395;BME280;60384;48.152;11.614;2023-03-26T08:32:19;94696.56;;;9.89;52.57
72395;BME280;60384;48.152;11.614;2023-03-26T08:35:21;94690.56;;;9.92;52.50
72395;BME280;60384;48.152;11.614;2023-03-26T08:38:23;94687.78;;;10.01;52.37
72395;BME280;60384;48.152;11.614;2023-03-26T08:52:34;94681.88;;;10.19;52.36
72395;BME280;60384;48.152;11.614;2023-03-26T08:55:48;94685.19;;;10.28;52.29
72395;BME280;60384;48.152;11.614;2023-03-26T08:59:35;94689.63;;;10.37;52.39
72395;BME280;60384;48.152;11.614;2023-03-26T09:03:12;94680.81;;;10.36;52.42
72395;BME280;60384;48.152;11.614;2023-03-26T09:10:40;94678.72;;;10.29;52.52
72395;BME280;60384;48.152;11.614;2023-03-26T09:17:50;94669.28;;;10.20;52.80
72395;BME280;60384;48.152;11.614;2023-03-26T09:21:29;94676.72;;;10.14;53.28
72395;BME280;60384;48.152;11.614;2023-03-26T09:24:47;94670.19;;;10.12;52.80
72395;BME280;60384;48.152;11.614;2023-03-26T09:28:12;94651.84;;;10.10;53.14
72395;BME280;60384;48.152;11.614;2023-03-26T09:32:00;94645.06;;;10.13;52.61
72395;BME280;60384;48.152;11.614;2023-03-26T09:38:41;94632.50;;;10.13;53.19
72395;BME280;60384;48.152;11.614;2023-03-26T09:41:54;94637.28;;;10.08;52.92
72395;BME280;60384;48.152;11.614;2023-03-26T09:45:21;94647.06;;;10.04;53.19
72395;BME280;60384;48.152;11.614;2023-03-26T09:48:47;94654.19;;;10.00;53.15
72395;BME280;60384;48.152;11.614;2023-03-26T09:52:15;94654.44;;;9.94;53.23
72395;BME280;60384;48.152;11.614;2023-03-26T09:55:41;94636.88;;;9.93;53.03
72395;BME280;60384;48.152;11.614;2023-03-26T10:02:55;94647.31;;;9.86;53.33
72395;BME280;60384;48.152;11.614;2023-03-26T10:06:21;94645.44;;;9.87;53.37
72395;BME280;60384;48.152;11.614;2023-03-26T10:09:34;94626.28;;;9.97;52.67
72395;BME280;60384;48.152;11.614;2023-03-26T10:12:42;94608.06;;;9.99;52.92
72395;BME280;60384;48.152;11.614;2023-03-26T10:15:57;94616.41;;;9.98;53.06
72395;BME280;60384;48.152;11.614;2023-03-26T10:19:15;94604.53;;;9.95;53.23
72395;BME280;60384;48.152;11.614;2023-03-26T10:22:26;94612.19;;;9.97;53.24
72395;BME280;60384;48.152;11.614;2023-03-26T10:25:47;94619.31;;;9.92;53.51
72395;BME280;60384;48.152;11.614;2023-03-26T10:29:11;94616.31;;;9.94;52.78
72395;BME280;60384;48.152;11.614;2023-03-26T10:32:25;94607.06;;;9.91;52.88
72395;BME280;60384;48.152;11.614;2023-03-26T10:35:40;94613.75;;;9.85;53.24
72395;BME280;60384;48.152;11.614;2023-03-26T10:38:55;94621.44;;;9.87;53.47
72395;BME280;60384;48.152;11.614;2023-03-26T10:42:14;94620.00;;;9.89;53.33
72395;BME280;60384;48.152;11.614;2023-03-26T10:45:31;94638.22;;;9.87;53.39
72395;BME280;60384;48.152;11.614;2023-03-26T10:49:25;94631.31;;;9.86;53.65
72395;BME280;60384;48.152;11.614;2023-03-26T10:52:33;94634.22;;;9.81;53.73
72395;BME280;60384;48.152;11.614;2023-03-26T10:55:38;94635.34;;;9.80;53.44
72395;BME280;60384;48.152;11.614;2023-03-26T10:58:41;94617.25;;;9.74;53.34
72395;BME280;60384;48.152;11.614;2023-03-26T11:01:47;94617.03;;;9.79;53.97
72395;BME280;60384;48.152;11.614;2023-03-26T11:04:56;94623.13;;;9.79;53.75
72395;BME280;60384;48.152;11.614;2023-03-26T11:08:03;94605.03;;;9.73;53.55
72395;BME280;60384;48.152;11.614;2023-03-26T11:11:13;94588.50;;;9.67;53.56
72395;BME280;60384;48.152;11.614;2023-03-26T11:14:21;94600.25;;;9.78;53.61
72395;BME280;60384;48.152;11.614;2023-03-26T11:17:36;94592.88;;;9.87;53.85
72395;BME280;60384;48.152;11.614;2023-03-26T11:20:46;94590.97;;;9.88;53.48
72395;BME280;60384;48.152;11.614;2023-03-26T11:27:11;94587.50;;;10.00;53.07
72395;BME280;60384;48.152;11.614;2023-03-26T11:30:23;94580.72;;;10.02;53.17
72395;BME280;60384;48.152;11.614;2023-03-26T11:33:33;94589.59;;;10.06;53.29
72395;BME280;60384;48.152;11.614;2023-03-26T11:36:39;94587.00;;;10.10;53.10
72395;BME280;60384;48.152;11.614;2023-03-26T11:39:48;94577.97;;;10.14;53.28
72395;BME280;60384;48.152;11.614;2023-03-26T11:42:55;94587.78;;;10.10;53.29
72395;BME280;60384;48.152;11.614;2023-03-26T11:46:00;94595.34;;;10.08;53.68
72395;BME280;60384;48.152;11.614;2023-03-26T11:49:07;94592.38;;;9.98;53.83
72395;BME280;60384;48.152;11.614;2023-03-26T11:52:11;94592.78;;;9.84;54.10
72395;BME280;60384;48.152;11.614;2023-03-26T11:55:15;94592.56;;;9.77;54.10
72395;BME280;60384;48.152;11.614;2023-03-26T11:58:28;94577.69;;;9.76;54.22
72395;BME280;60384;48.152;11.614;2023-03-26T12:01:41;94578.53;;;9.80;54.51
72395;BME280;60384;48.152;11.614;2023-03-26T12:04:49;94572.56;;;9.83;54.13
72395;BME280;60384;48.152;11.614;2023-03-26T12:07:56;94571.88;;;9.86;54.17
72395;BME280;60384;48.152;11.614;2023-03-26T12:11:01;94537.63;;;9.88;54.43
72395;BME280;60384;48.152;11.614;2023-03-26T12:14:04;94549.91;;;10.05;53.98
72395;BME280;60384;48.152;11.614;2023-03-26T12:17:08;94557.88;;;10.45;52.92
72395;BME280;60384;48.152;11.614;2023-03-26T12:20:33;94560.47;;;11.04;52.24
72395;BME280;60384;48.152;11.614;2023-03-26T12:23:53;94555.53;;;11.37;51.97
72395;BME280;60384;48.152;11.614;2023-03-26T12:26:57;94545.56;;;11.53;52.36
72395;BME280;60384;48.152;11.614;2023-03-26T12:30:10;94550.84;;;11.50;51.99
72395;BME280;60384;48.152;11.614;2023-03-26T12:33:14;94553.69;;;11.41;52.78
72395;BME280;60384;48.152;11.614;2023-03-26T12:36:24;94556.91;;;11.31;52.89
72395;BME280;60384;48.152;11.614;2023-03-26T12:39:32;94540.53;;;11.17;53.10
72395;BME280;60384;48.152;11.614;2023-03-26T12:42:39;94548.31;;;11.06;53.76
72395;BME280;60384;48.152;11.614;2023-03-26T12:45:42;94540.91;;;11.00;53.84
72395;BME280;60384;48.152;11.614;2023-03-26T12:48:44;94540.91;;;11.00;53.98
72395;BME280;60384;48.152;11.614;2023-03-26T12:51:50;94546.69;;;11.02;54.35
72395;BME280;60384;48.152;11.614;2023-03-26T12:55:01;94553.59;;;11.03;53.97
72395;BME280;60384;48.152;11.614;2023-03-26T12:58:20;94542.13;;;11.02;53.76
72395;BME280;60384;48.152;11.614;2023-03-26T13:01:30;94541.34;;;11.02;54.47
72395;BME280;60384;48.152;11.614;2023-03-26T13:04:45;94520.28;;;11.00;54.16
72395;BME280;60384;48.152;11.614;2023-03-26T13:08:05;94524.97;;;11.03;53.64
72395;BME280;60384;48.152;11.614;2023-03-26T13:11:19;94518.13;;;11.06;54.31
72395;BME280;60384;48.152;11.614;2023-03-26T13:14:37;94528.81;;;11.06;54.37
72395;BME280;60384;48.152;11.614;2023-03-26T13:17:52;94521.19;;;11.04;53.57
72395;BME280;60384;48.152;11.614;2023-03-26T13:21:05;94512.44;;;11.07;54.10
72395;BME280;60384;48.152;11.614;2023-03-26T13:24:20;94513.66;;;11.10;54.43
72395;BME280;60384;48.152;11.614;2023-03-26T13:27:35;94515.19;;;11.11;55.08
72395;BME280;60384;48.152;11.614;2023-03-26T13:30:42;94515.13;;;11.07;54.05
72395;BME280;60384;48.152;11.614;2023-03-26T13:33:51;94511.00;;;11.10;54.27
72395;BME280;60384;48.152;11.614;2023-03-26T13:37:06;94505.66;;;11.10;54.77
72395;BME280;60384;48.152;11.614;2023-03-26T13:40:21;94509.72;;;11.04;54.69
72395;BME280;60384;48.152;11.614;2023-03-26T13:43:36;94504.63;;;10.99;54.79
72395;BME280;60384;48.152;11.614;2023-03-26T13:46:44;94495.75;;;10.95;55.22
72395;BME280;60384;48.152;11.614;2023-03-26T13:49:49;94498.16;;;11.00;54.66
72395;BME280;60384;48.152;11.614;2023-03-26T13:52:57;94486.69;;;10.99;55.40
72395;BME280;60384;48.152;11.614;2023-03-26T13:56:02;94496.25;;;11.00;54.69
72395;BME280;60384;48.152;11.614;2023-03-26T13:59:07;94472.28;;;11.04;55.11
72395;BME280;60384;48.152;11.614;2023-03-26T14:02:18;94473.06;;;11.04;54.51
72395;BME280;60384;48.152;11.614;2023-03-26T14:05:27;94462.88;;;11.10;54.81
72395;BME280;60384;48.152;11.614;2023-03-26T14:08:35;94454.59;;;11.15;53.62
72395;BME280;60384;48.152;11.614;2023-03-26T14:11:49;94446.66;;;11.18;54.65
72395;BME280;60384;48.152;11.614;2023-03-26T14:14:59;94523.31;;;11.14;54.15
72395;BME280;60384;48.152;11.614;2023-03-26T14:18:11;94497.31;;;10.80;54.78
72395;BME280;60384;48.152;11.614;2023-03-26T14:21:32;94472.50;;;10.48;54.73
72395;BME280;60384;48.152;11.614;2023-03-26T14:24:53;94470.53;;;10.29;55.52
72395;BME280;60384;48.152;11.614;2023-03-26T14:28:12;94465.50;;;10.12;55.83
72395;BME280;60384;48.152;11.614;2023-03-26T14:31:22;94464.59;;;9.92;55.45
72395;BME280;60384;48.152;11.614;2023-03-26T14:34:41;94451.31;;;9.80;55.72
72395;BME280;60384;48.152;11.614;2023-03-26T14:37:57;94446.88;;;9.84;55.07
72395;BME280;60384;48.152;11.614;2023-03-26T14:41:13;94434.38;;;9.88;54.71
72395;BME280;60384;48.152;11.614;2023-03-26T14:44:57;94439.66;;;9.85;55.26
72395;BME280;60384;48.152;11.614;2023-03-26T14:48:30;94429.97;;;9.80;55.21
72395;BME280;60384;48.152;11.614;2023-03-26T14:51:52;94423.13;;;9.79;55.03
72395;BME280;60384;48.152;11.614;2023-03-26T14:55:02;94422.69;;;9.77;55.19
72395;BME280;60384;48.152;11.614;2023-03-26T14:58:22;94429.31;;;9.83;55.17
72395;BME280;60384;48.152;11.614;2023-03-26T15:01:46;94426.38;;;9.88;54.98
72395;BME280;60384;48.152;11.614;2023-03-26T15:05:27;94427.50;;;9.87;54.88
72395;BME280;60384;48.152;11.614;2023-03-26T15:12:29;94404.34;;;9.91;54.98
72395;BME280;60384;48.152;11.614;2023-03-26T15:16:00;94412.53;;;9.99;54.97
72395;BME280;60384;48.152;11.614;2023-03-26T15:19:30;94412.72;;;10.06;54.67
72395;BME280;60384;48.152;11.614;2023-03-26T15:23:13;94395.69;;;10.10;54.59
72395;BME280;60384;48.152;11.614;2023-03-26T15:34:12;94396.16;;;10.28;54.91
72395;BME280;60384;48.152;11.614;2023-03-26T15:37:42;94396.59;;;10.30;54.79
72395;BME280;60384;48.152;11.614;2023-03-26T15:41:01;94391.66;;;10.32;54.84
72395;BME280;60384;48.152;11.614;2023-03-26T15:44:18;94382.97;;;10.35;54.82
72395;BME280;60384;48.152;11.614;2023-03-26T15:47:52;94386.81;;;10.38;54.51
72395;BME280;60384;48.152;11.614;2023-03-26T15:51:07;94393.31;;;10.37;54.92
72395;BME280;60384;48.152;11.614;2023-03-26T15:54:21;94403.63;;;10.38;55.06
72395;BME280;60384;48.152;11.614;2023-03-26T15:57:28;94402.84;;;10.38;54.85
72395;BME280;60384;48.152;11.614;2023-03-26T16:00:33;94414.66;;;10.37;55.43
72395;BME280;60384;48.152;11.614;2023-03-26T16:03:40;94426.47;;;10.35;54.94
72395;BME280;60384;48.152;11.614;2023-03-26T16:06:54;94398.09;;;10.31;55.64
72395;BME280;60384;48.152;11.614;2023-03-26T16:10:15;94365.56;;;10.25;55.46
72395;BME280;60384;48.152;11.614;2023-03-26T16:13:34;94382.22;;;10.19;55.71
72395;BME280;60384;48.152;11.614;2023-03-26T16:16:49;94397.31;;;10.15;55.25
72395;BME280;60384;48.152;11.614;2023-03-26T16:19:58;94393.47;;;10.12;55.02
72395;BME280;60384;48.152;11.614;2023-03-26T16:23:19;94382.78;;;10.12;55.24
72395;BME280;60384;48.152;11.614;2023-03-26T16:26:35;94396.38;;;10.07;55.38
72395;BME280;60384;48.152;11.614;2023-03-26T16:30:07;94372.63;;;10.02;55.53
72395;BME280;60384;48.152;11.614;2023-03-26T16:33:17;94387.88;;;10.02;55.36
72395;BME280;60384;48.152;11.614;2023-03-26T16:36:25;94384.81;;;10.03;54.83
72395;BME280;60384;48.152;11.614;2023-03-26T16:39:40;94367.72;;;10.04;55.15
72395;BME280;60384;48.152;11.614;2023-03-26T16:42:47;94364.25;;;10.04;54.97
72395;BME280;60384;48.152;11.614;2023-03-26T16:45:57;94352.47;;;10.05;55.19
72395;BME280;60384;48.152;11.614;2023-03-26T16:49:10;94357.03;;;10.04;54.86
72395;BME280;60384;48.152;11.614;2023-03-26T16:52:24;94351.69;;;10.04;55.36
72395;BME280;60384;48.152;11.614;2023-03-26T16:55:36;94349.72;;;10.01;55.26
72395;BME280;60384;48.152;11.614;2023-03-26T16:58:53;94354.72;;;10.03;55.36
72395;BME280;60384;48.152;11.614;2023-03-26T17:01:58;94358.41;;;9.98;54.93
72395;BME280;60384;48.152;11.614;2023-03-26T17:05:16;94353.00;;;9.94;55.23
72395;BME280;60384;48.152;11.614;2023-03-26T17:08:24;94367.00;;;9.91;55.37
72395;BME280;60384;48.152;11.614;2023-03-26T17:11:39;94368.50;;;9.89;55.56
72395;BME280;60384;48.152;11.614;2023-03-26T17:15:06;94371.03;;;9.85;55.22
72395;BME280;60384;48.152;11.614;2023-03-26T17:18:23;94361.41;;;9.81;55.63
72395;BME280;60384;48.152;11.614;2023-03-26T17:21:35;94356.78;;;9.78;55.67
72395;BME280;60384;48.152;11.614;2023-03-26T17:24:47;94352.91;;;9.75;55.46
72395;BME280;60384;48.152;11.614;2023-03-26T17:28:19;94351.25;;;9.71;55.58
72395;BME280;60384;48.152;11.614;2023-03-26T17:31:34;94354.63;;;9.68;55.48
72395;BME280;60384;48.152;11.614;2023-03-26T17:34:53;94366.28;;;9.63;55.42
72395;BME280;60384;48.152;11.614;2023-03-26T17:37:56;94365.88;;;9.61;55.87
72395;BME280;60384;48.152;11.614;2023-03-26T17:40:58;94378.44;;;9.61;55.81
72395;BME280;60384;48.152;11.614;2023-03-26T17:44:21;94388.31;;;9.60;55.75